sensor_id;sensor_type;location;lat;lon;timestamp;P1;durP1;ratioP1;P2;durP2;ratioP2
68690;SDS011;55675;49.588;8.640;2022-12-05T00:02:09;22.43;;;12.67;;
68690;SDS011;55675;49.588;8.640;2022-12-05T00:04:34;21.97;;;12.63;;
68690;SDS011;55675;49.588;8.640;2022-12-05T00:07:00;24.07;;;12.30;;
68690;SDS011;55675;49.588;8.640;2022-12-05T00:09:25;23.17;;;12.43;;
68690;SDS011;55675;49.588;8.640;2022-12-05T00:11:51;19.47;;;11.73;;
68690;SDS011;55675;49.588;8.640;2022-12-05T00:14:17;21.93;;;11.30;;
68690;SDS011;55675;49.588;8.640;2022-12-05T00:16:43;22.57;;;12.37;;
68690;SDS011;55675;49.588;8.640;2022-12-05T00:19:10;16.37;;;10.90;;
68690;SDS011;55675;49.588;8.640;2022-12-05T00:21:37;19.83;;;11.87;;
68690;SDS011;55675;49.588;8.640;2022-12-05T00:24:04;18.80;;;11.43;;
68690;SDS011;55675;49.588;8.640;2022-12-05T00:26:31;18.23;;;11.23;;
68690;SDS011;55675;49.588;8.640;2022-12-05T00:28:57;19.27;;;11.30;;
68690;SDS011;55675;49.588;8.640;2022-12-05T00:31:24;20.73;;;11.77;;
68690;SDS011;55675;49.588;8.640;2022-12-05T00:33:50;19.07;;;12.30;;
68690;SDS011;55675;49.588;8.640;2022-12-05T00:36:20;24.00;;;12.40;;
68690;SDS011;55675;49.588;8.640;2022-12-05T00:38:52;22.20;;;12.27;;
68690;SDS011;55675;49.588;8.640;2022-12-05T00:41:22;21.50;;;11.80;;
68690;SDS011;55675;49.588;8.640;2022-12-05T00:43:50;21.00;;;11.30;;
68690;SDS011;55675;49.588;8.640;2022-12-05T00:46:18;24.43;;;11.70;;
68690;SDS011;55675;49.588;8.640;2022-12-05T00:48:45;22.37;;;12.70;;
68690;SDS011;55675;49.588;8.640;2022-12-05T00:53:38;22.73;;;11.93;;
68690;SDS011;55675;49.588;8.640;2022-12-05T00:56:06;23.03;;;11.80;;
68690;SDS011;55675;49.588;8.640;2022-12-05T00:58:34;23.00;;;12.10;;
68690;SDS011;55675;49.588;8.640;2022-12-05T01:01:07;21.37;;;11.70;;
68690;SDS011;55675;49.588;8.640;2022-12-05T01:03:38;22.33;;;11.90;;
68690;SDS011;55675;49.588;8.640;2022-12-05T01:06:04;21.27;;;13.00;;
68690;SDS011;55675;49.588;8.640;2022-12-05T01:08:31;22.20;;;11.93;;
68690;SDS011;55675;49.588;8.640;2022-12-05T01:10:57;22.77;;;12.10;;
68690;SDS011;55675;49.588;8.640;2022-12-05T01:13:24;18.57;;;11.30;;
68690;SDS011;55675;49.588;8.640;2022-12-05T01:15:50;24.73;;;12.73;;
68690;SDS011;55675;49.588;8.640;2022-12-05T01:18:17;21.50;;;11.83;;
68690;SDS011;55675;49.588;8.640;2022-12-05T01:20:43;20.47;;;11.90;;
68690;SDS011;55675;49.588;8.640;2022-12-05T01:23:08;23.83;;;12.70;;
68690;SDS011;55675;49.588;8.640;2022-12-05T01:25:37;22.47;;;11.97;;
68690;SDS011;55675;49.588;8.640;2022-12-05T01:28:05;22.10;;;11.87;;
68690;SDS011;55675;49.588;8.640;2022-12-05T01:30:30;22.10;;;12.10;;
68690;SDS011;55675;49.588;8.640;2022-12-05T01:32:57;23.03;;;11.53;;
68690;SDS011;55675;49.588;8.640;2022-12-05T01:35:23;29.90;;;13.03;;
68690;SDS011;55675;49.588;8.640;2022-12-05T01:37:49;26.20;;;11.93;;
68690;SDS011;55675;49.588;8.640;2022-12-05T01:40:15;24.13;;;12.67;;
68690;SDS011;55675;49.588;8.640;2022-12-05T01:42:41;25.43;;;12.90;;
68690;SDS011;55675;49.588;8.640;2022-12-05T01:45:12;26.03;;;13.07;;
68690;SDS011;55675;49.588;8.640;2022-12-05T01:47:46;23.97;;;12.67;;
68690;SDS011;55675;49.588;8.640;2022-12-05T01:50:12;27.10;;;13.27;;
68690;SDS011;55675;49.588;8.640;2022-12-05T01:52:37;25.37;;;12.77;;
68690;SDS011;55675;49.588;8.640;2022-12-05T01:55:13;28.50;;;12.80;;
68690;SDS011;55675;49.588;8.640;2022-12-05T01:57:40;26.17;;;12.17;;
68690;SDS011;55675;49.588;8.640;2022-12-05T02:00:11;23.07;;;13.07;;
68690;SDS011;55675;49.588;8.640;2022-12-05T02:02:39;22.03;;;12.37;;
68690;SDS011;55675;49.588;8.640;2022-12-05T02:05:10;27.97;;;13.00;;
68690;SDS011;55675;49.588;8.640;2022-12-05T02:07:57;27.67;;;12.90;;
68690;SDS011;55675;49.588;8.640;2022-12-05T02:10:24;24.67;;;12.93;;
68690;SDS011;55675;49.588;8.640;2022-12-05T02:12:52;23.27;;;12.07;;
68690;SDS011;55675;49.588;8.640;2022-12-05T02:15:39;26.03;;;12.47;;
68690;SDS011;55675;49.588;8.640;2022-12-05T02:18:25;30.97;;;13.03;;
68690;SDS011;55675;49.588;8.640;2022-12-05T02:23:38;26.80;;;12.77;;
68690;SDS011;55675;49.588;8.640;2022-12-05T02:29:15;25.63;;;11.90;;
68690;SDS011;55675;49.588;8.640;2022-12-05T02:32:17;29.60;;;12.83;;
68690;SDS011;55675;49.588;8.640;2022-12-05T02:34:52;28.97;;;12.83;;
68690;SDS011;55675;49.588;8.640;2022-12-05T02:37:41;30.57;;;13.27;;
68690;SDS011;55675;49.588;8.640;2022-12-05T02:42:58;29.00;;;13.63;;
68690;SDS011;55675;49.588;8.640;2022-12-05T02:45:27;29.27;;;13.10;;
68690;SDS011;55675;49.588;8.640;2022-12-05T02:47:58;26.37;;;12.97;;
68690;SDS011;55675;49.588;8.640;2022-12-05T02:50:26;27.23;;;13.23;;
68690;SDS011;55675;49.588;8.640;2022-12-05T02:52:56;27.87;;;13.27;;
68690;SDS011;55675;49.588;8.640;2022-12-05T02:55:24;29.17;;;13.40;;
68690;SDS011;55675;49.588;8.640;2022-12-05T02:57:53;26.37;;;12.80;;
68690;SDS011;55675;49.588;8.640;2022-12-05T03:00:22;24.70;;;12.70;;
68690;SDS011;55675;49.588;8.640;2022-12-05T03:02:49;26.60;;;12.57;;
68690;SDS011;55675;49.588;8.640;2022-12-05T03:07:56;30.37;;;13.90;;
68690;SDS011;55675;49.588;8.640;2022-12-05T03:10:25;28.73;;;13.53;;
68690;SDS011;55675;49.588;8.640;2022-12-05T03:12:55;34.43;;;14.03;;
68690;SDS011;55675;49.588;8.640;2022-12-05T03:15:28;30.23;;;13.93;;
68690;SDS011;55675;49.588;8.640;2022-12-05T03:18:00;29.00;;;12.80;;
68690;SDS011;55675;49.588;8.640;2022-12-05T03:20:32;26.97;;;13.93;;
68690;SDS011;55675;49.588;8.640;2022-12-05T03:23:27;27.73;;;13.13;;
68690;SDS011;55675;49.588;8.640;2022-12-05T03:28:56;36.53;;;14.40;;
68690;SDS011;55675;49.588;8.640;2022-12-05T03:34:21;29.10;;;13.20;;
68690;SDS011;55675;49.588;8.640;2022-12-05T03:37:07;35.83;;;14.30;;
68690;SDS011;55675;49.588;8.640;2022-12-05T03:39:38;30.63;;;13.17;;
68690;SDS011;55675;49.588;8.640;2022-12-05T03:42:12;30.20;;;13.67;;
68690;SDS011;55675;49.588;8.640;2022-12-05T03:47:38;31.17;;;13.57;;
68690;SDS011;55675;49.588;8.640;2022-12-05T03:50:18;47.27;;;15.00;;
68690;SDS011;55675;49.588;8.640;2022-12-05T03:52:54;33.50;;;14.27;;
68690;SDS011;55675;49.588;8.640;2022-12-05T03:55:26;58.10;;;16.10;;
68690;SDS011;55675;49.588;8.640;2022-12-05T03:57:57;36.97;;;14.13;;
68690;SDS011;55675;49.588;8.640;2022-12-05T04:00:26;47.40;;;14.07;;
68690;SDS011;55675;49.588;8.640;2022-12-05T04:02:54;37.77;;;14.60;;
68690;SDS011;55675;49.588;8.640;2022-12-05T04:05:31;46.17;;;15.30;;
68690;SDS011;55675;49.588;8.640;2022-12-05T04:08:04;45.03;;;15.30;;
68690;SDS011;55675;49.588;8.640;2022-12-05T04:10:35;35.67;;;14.37;;
68690;SDS011;55675;49.588;8.640;2022-12-05T04:13:12;35.03;;;14.50;;
68690;SDS011;55675;49.588;8.640;2022-12-05T04:16:00;33.67;;;14.20;;
68690;SDS011;55675;49.588;8.640;2022-12-05T04:18:50;38.13;;;14.57;;
68690;SDS011;55675;49.588;8.640;2022-12-05T04:21:21;37.10;;;14.10;;
68690;SDS011;55675;49.588;8.640;2022-12-05T04:24:02;35.60;;;14.10;;
68690;SDS011;55675;49.588;8.640;2022-12-05T04:26:55;38.40;;;14.23;;
68690;SDS011;55675;49.588;8.640;2022-12-05T04:29:57;40.87;;;14.73;;
68690;SDS011;55675;49.588;8.640;2022-12-05T04:32:29;39.60;;;15.13;;
68690;SDS011;55675;49.588;8.640;2022-12-05T04:35:18;34.93;;;15.33;;
68690;SDS011;55675;49.588;8.640;2022-12-05T04:37:52;38.03;;;15.53;;
68690;SDS011;55675;49.588;8.640;2022-12-05T04:40:26;35.33;;;13.73;;
68690;SDS011;55675;49.588;8.640;2022-12-05T04:42:57;33.07;;;13.87;;
68690;SDS011;55675;49.588;8.640;2022-12-05T04:45:25;32.67;;;15.67;;
68690;SDS011;55675;49.588;8.640;2022-12-05T04:47:56;29.90;;;12.93;;
68690;SDS011;55675;49.588;8.640;2022-12-05T04:50:26;36.53;;;13.83;;
68690;SDS011;55675;49.588;8.640;2022-12-05T04:52:55;34.53;;;13.57;;
68690;SDS011;55675;49.588;8.640;2022-12-05T04:55:24;31.53;;;13.70;;
68690;SDS011;55675;49.588;8.640;2022-12-05T04:57:58;31.87;;;13.17;;
68690;SDS011;55675;49.588;8.640;2022-12-05T05:00:28;26.93;;;13.67;;
68690;SDS011;55675;49.588;8.640;2022-12-05T05:03:12;26.77;;;11.87;;
68690;SDS011;55675;49.588;8.640;2022-12-05T05:05:47;27.70;;;12.97;;
68690;SDS011;55675;49.588;8.640;2022-12-05T05:08:20;25.50;;;12.80;;
68690;SDS011;55675;49.588;8.640;2022-12-05T05:10:53;28.80;;;13.10;;
68690;SDS011;55675;49.588;8.640;2022-12-05T05:13:30;27.97;;;12.93;;
68690;SDS011;55675;49.588;8.640;2022-12-05T05:15:56;30.00;;;12.73;;
68690;SDS011;55675;49.588;8.640;2022-12-05T05:18:21;25.83;;;12.17;;
68690;SDS011;55675;49.588;8.640;2022-12-05T05:20:47;27.67;;;12.33;;
68690;SDS011;55675;49.588;8.640;2022-12-05T05:23:12;29.33;;;12.23;;
68690;SDS011;55675;49.588;8.640;2022-12-05T05:25:38;24.63;;;12.10;;
68690;SDS011;55675;49.588;8.640;2022-12-05T05:28:04;29.33;;;12.83;;
68690;SDS011;55675;49.588;8.640;2022-12-05T05:30:29;26.53;;;12.27;;
68690;SDS011;55675;49.588;8.640;2022-12-05T05:32:55;27.27;;;12.77;;
68690;SDS011;55675;49.588;8.640;2022-12-05T05:35:22;23.97;;;12.10;;
68690;SDS011;55675;49.588;8.640;2022-12-05T05:37:48;40.73;;;20.77;;
68690;SDS011;55675;49.588;8.640;2022-12-05T05:40:13;27.27;;;12.97;;
68690;SDS011;55675;49.588;8.640;2022-12-05T05:42:43;22.67;;;12.27;;
68690;SDS011;55675;49.588;8.640;2022-12-05T05:45:13;21.97;;;12.17;;
68690;SDS011;55675;49.588;8.640;2022-12-05T05:47:39;24.20;;;12.17;;
68690;SDS011;55675;49.588;8.640;2022-12-05T05:50:06;23.93;;;11.60;;
68690;SDS011;55675;49.588;8.640;2022-12-05T05:52:33;26.63;;;12.00;;
68690;SDS011;55675;49.588;8.640;2022-12-05T05:55:00;25.50;;;12.07;;
68690;SDS011;55675;49.588;8.640;2022-12-05T05:57:26;23.90;;;11.67;;
68690;SDS011;55675;49.588;8.640;2022-12-05T05:59:52;21.57;;;11.20;;
68690;SDS011;55675;49.588;8.640;2022-12-05T06:02:17;22.37;;;11.40;;
68690;SDS011;55675;49.588;8.640;2022-12-05T06:04:43;21.23;;;11.10;;
68690;SDS011;55675;49.588;8.640;2022-12-05T06:07:08;22.77;;;11.17;;
68690;SDS011;55675;49.588;8.640;2022-12-05T06:09:34;21.47;;;11.33;;
68690;SDS011;55675;49.588;8.640;2022-12-05T06:11:59;21.47;;;12.10;;
68690;SDS011;55675;49.588;8.640;2022-12-05T06:14:25;23.73;;;11.53;;
68690;SDS011;55675;49.588;8.640;2022-12-05T06:16:50;23.30;;;11.23;;
68690;SDS011;55675;49.588;8.640;2022-12-05T06:19:16;23.53;;;10.40;;
68690;SDS011;55675;49.588;8.640;2022-12-05T06:21:41;17.80;;;10.00;;
68690;SDS011;55675;49.588;8.640;2022-12-05T06:24:07;21.40;;;10.50;;
68690;SDS011;55675;49.588;8.640;2022-12-05T06:26:33;18.67;;;10.27;;
68690;SDS011;55675;49.588;8.640;2022-12-05T06:28:58;18.33;;;10.23;;
68690;SDS011;55675;49.588;8.640;2022-12-05T06:31:24;17.30;;;9.63;;
68690;SDS011;55675;49.588;8.640;2022-12-05T06:33:58;19.13;;;10.27;;
68690;SDS011;55675;49.588;8.640;2022-12-05T06:36:25;21.57;;;10.93;;
68690;SDS011;55675;49.588;8.640;2022-12-05T06:38:50;18.37;;;9.97;;
68690;SDS011;55675;49.588;8.640;2022-12-05T06:41:17;21.33;;;10.23;;
68690;SDS011;55675;49.588;8.640;2022-12-05T06:43:44;19.37;;;10.37;;
68690;SDS011;55675;49.588;8.640;2022-12-05T06:46:11;15.70;;;9.57;;
68690;SDS011;55675;49.588;8.640;2022-12-05T06:48:38;18.00;;;10.20;;
68690;SDS011;55675;49.588;8.640;2022-12-05T06:51:04;21.23;;;10.67;;
68690;SDS011;55675;49.588;8.640;2022-12-05T06:53:32;19.07;;;10.03;;
68690;SDS011;55675;49.588;8.640;2022-12-05T06:55:59;17.60;;;10.07;;
68690;SDS011;55675;49.588;8.640;2022-12-05T06:58:26;21.00;;;11.10;;
68690;SDS011;55675;49.588;8.640;2022-12-05T07:00:52;18.07;;;10.27;;
68690;SDS011;55675;49.588;8.640;2022-12-05T07:03:37;20.53;;;10.63;;
68690;SDS011;55675;49.588;8.640;2022-12-05T07:06:03;19.90;;;10.90;;
68690;SDS011;55675;49.588;8.640;2022-12-05T07:08:30;20.87;;;10.67;;
68690;SDS011;55675;49.588;8.640;2022-12-05T07:10:56;18.87;;;11.40;;
68690;SDS011;55675;49.588;8.640;2022-12-05T07:13:22;21.10;;;10.30;;
68690;SDS011;55675;49.588;8.640;2022-12-05T07:15:48;20.80;;;10.93;;
68690;SDS011;55675;49.588;8.640;2022-12-05T07:18:15;27.97;;;12.33;;
68690;SDS011;55675;49.588;8.640;2022-12-05T07:20:41;21.47;;;10.90;;
68690;SDS011;55675;49.588;8.640;2022-12-05T07:23:07;24.00;;;11.50;;
68690;SDS011;55675;49.588;8.640;2022-12-05T07:25:37;25.93;;;11.40;;
68690;SDS011;55675;49.588;8.640;2022-12-05T07:28:04;26.40;;;11.27;;
68690;SDS011;55675;49.588;8.640;2022-12-05T07:30:30;24.30;;;11.77;;
68690;SDS011;55675;49.588;8.640;2022-12-05T07:32:55;25.30;;;11.83;;
68690;SDS011;55675;49.588;8.640;2022-12-05T07:35:21;28.10;;;12.63;;
68690;SDS011;55675;49.588;8.640;2022-12-05T07:37:46;24.53;;;11.47;;
68690;SDS011;55675;49.588;8.640;2022-12-05T07:40:12;26.03;;;11.77;;
68690;SDS011;55675;49.588;8.640;2022-12-05T07:42:38;24.53;;;11.97;;
68690;SDS011;55675;49.588;8.640;2022-12-05T07:45:03;23.20;;;11.57;;
68690;SDS011;55675;49.588;8.640;2022-12-05T07:47:29;23.70;;;11.00;;
68690;SDS011;55675;49.588;8.640;2022-12-05T07:49:55;23.90;;;12.13;;
68690;SDS011;55675;49.588;8.640;2022-12-05T07:52:20;26.03;;;12.40;;
68690;SDS011;55675;49.588;8.640;2022-12-05T07:54:46;21.90;;;12.13;;
68690;SDS011;55675;49.588;8.640;2022-12-05T07:57:11;21.00;;;10.53;;
68690;SDS011;55675;49.588;8.640;2022-12-05T07:59:37;22.83;;;11.87;;
68690;SDS011;55675;49.588;8.640;2022-12-05T08:02:02;23.60;;;11.80;;
68690;SDS011;55675;49.588;8.640;2022-12-05T08:04:28;22.73;;;11.67;;
68690;SDS011;55675;49.588;8.640;2022-12-05T08:06:53;20.87;;;11.17;;
68690;SDS011;55675;49.588;8.640;2022-12-05T08:09:19;23.30;;;11.20;;
68690;SDS011;55675;49.588;8.640;2022-12-05T08:11:44;24.20;;;11.87;;
68690;SDS011;55675;49.588;8.640;2022-12-05T08:14:10;21.13;;;10.60;;
68690;SDS011;55675;49.588;8.640;2022-12-05T08:16:36;23.03;;;10.60;;
68690;SDS011;55675;49.588;8.640;2022-12-05T08:19:02;22.37;;;11.60;;
68690;SDS011;55675;49.588;8.640;2022-12-05T08:21:30;24.03;;;11.57;;
68690;SDS011;55675;49.588;8.640;2022-12-05T08:23:56;21.40;;;11.30;;
68690;SDS011;55675;49.588;8.640;2022-12-05T08:26:24;22.30;;;11.37;;
68690;SDS011;55675;49.588;8.640;2022-12-05T08:28:52;21.10;;;11.50;;
68690;SDS011;55675;49.588;8.640;2022-12-05T08:31:20;23.47;;;12.10;;
68690;SDS011;55675;49.588;8.640;2022-12-05T08:33:48;21.17;;;11.33;;
68690;SDS011;55675;49.588;8.640;2022-12-05T08:36:15;23.87;;;11.80;;
68690;SDS011;55675;49.588;8.640;2022-12-05T08:38:41;19.83;;;10.00;;
68690;SDS011;55675;49.588;8.640;2022-12-05T08:41:09;22.87;;;11.33;;
68690;SDS011;55675;49.588;8.640;2022-12-05T08:43:37;21.97;;;11.07;;
68690;SDS011;55675;49.588;8.640;2022-12-05T08:46:03;22.80;;;12.63;;
68690;SDS011;55675;49.588;8.640;2022-12-05T08:48:29;25.80;;;12.27;;
68690;SDS011;55675;49.588;8.640;2022-12-05T08:50:56;22.40;;;12.10;;
68690;SDS011;55675;49.588;8.640;2022-12-05T08:53:22;19.73;;;10.87;;
68690;SDS011;55675;49.588;8.640;2022-12-05T08:55:48;21.53;;;12.37;;
68690;SDS011;55675;49.588;8.640;2022-12-05T08:58:14;26.13;;;12.20;;
68690;SDS011;55675;49.588;8.640;2022-12-05T09:00:40;23.20;;;12.53;;
68690;SDS011;55675;49.588;8.640;2022-12-05T09:03:07;23.27;;;11.87;;
68690;SDS011;55675;49.588;8.640;2022-12-05T09:05:35;20.40;;;12.30;;
68690;SDS011;55675;49.588;8.640;2022-12-05T09:08:00;21.47;;;11.83;;
68690;SDS011;55675;49.588;8.640;2022-12-05T09:10:26;21.07;;;11.90;;
68690;SDS011;55675;49.588;8.640;2022-12-05T09:12:52;22.20;;;11.57;;
68690;SDS011;55675;49.588;8.640;2022-12-05T09:15:17;23.83;;;12.00;;
68690;SDS011;55675;49.588;8.640;2022-12-05T09:17:43;22.30;;;12.20;;
68690;SDS011;55675;49.588;8.640;2022-12-05T09:20:09;20.03;;;11.37;;
68690;SDS011;55675;49.588;8.640;2022-12-05T09:22:37;19.60;;;11.60;;
68690;SDS011;55675;49.588;8.640;2022-12-05T09:25:03;20.90;;;11.07;;
68690;SDS011;55675;49.588;8.640;2022-12-05T09:27:29;23.87;;;12.30;;
68690;SDS011;55675;49.588;8.640;2022-12-05T09:29:54;22.23;;;11.23;;
68690;SDS011;55675;49.588;8.640;2022-12-05T09:32:20;21.17;;;10.93;;
68690;SDS011;55675;49.588;8.640;2022-12-05T09:34:45;20.43;;;11.57;;
68690;SDS011;55675;49.588;8.640;2022-12-05T09:37:11;21.73;;;11.87;;
68690;SDS011;55675;49.588;8.640;2022-12-05T09:39:37;21.47;;;11.93;;
68690;SDS011;55675;49.588;8.640;2022-12-05T09:42:21;18.83;;;10.97;;
68690;SDS011;55675;49.588;8.640;2022-12-05T09:50:42;21.47;;;10.90;;
68690;SDS011;55675;49.588;8.640;2022-12-05T09:55:41;19.63;;;11.20;;
68690;SDS011;55675;49.588;8.640;2022-12-05T09:58:21;18.87;;;10.50;;
68690;SDS011;55675;49.588;8.640;2022-12-05T10:04:04;17.13;;;10.50;;
68690;SDS011;55675;49.588;8.640;2022-12-05T10:06:39;18.33;;;10.80;;
68690;SDS011;55675;49.588;8.640;2022-12-05T10:15:28;14.57;;;9.30;;
68690;SDS011;55675;49.588;8.640;2022-12-05T10:21:04;19.60;;;10.67;;
68690;SDS011;55675;49.588;8.640;2022-12-05T10:23:40;17.60;;;10.57;;
68690;SDS011;55675;49.588;8.640;2022-12-05T10:26:15;17.83;;;11.43;;
68690;SDS011;55675;49.588;8.640;2022-12-05T10:31:27;16.40;;;10.37;;
68690;SDS011;55675;49.588;8.640;2022-12-05T10:34:02;17.13;;;11.07;;
68690;SDS011;55675;49.588;8.640;2022-12-05T10:36:52;18.10;;;10.73;;
68690;SDS011;55675;49.588;8.640;2022-12-05T10:39:32;17.43;;;11.00;;
68690;SDS011;55675;49.588;8.640;2022-12-05T10:41:58;16.83;;;10.47;;
68690;SDS011;55675;49.588;8.640;2022-12-05T10:44:23;16.77;;;10.47;;
68690;SDS011;55675;49.588;8.640;2022-12-05T10:46:49;16.60;;;10.57;;
68690;SDS011;55675;49.588;8.640;2022-12-05T10:49:15;16.33;;;10.43;;
68690;SDS011;55675;49.588;8.640;2022-12-05T10:51:41;18.07;;;11.33;;
68690;SDS011;55675;49.588;8.640;2022-12-05T10:54:12;16.47;;;10.30;;
68690;SDS011;55675;49.588;8.640;2022-12-05T10:56:51;19.07;;;11.17;;
68690;SDS011;55675;49.588;8.640;2022-12-05T10:59:43;15.93;;;10.53;;
68690;SDS011;55675;49.588;8.640;2022-12-05T11:02:16;14.50;;;10.13;;
68690;SDS011;55675;49.588;8.640;2022-12-05T11:04:53;19.00;;;10.93;;
68690;SDS011;55675;49.588;8.640;2022-12-05T11:07:37;16.53;;;10.40;;
68690;SDS011;55675;49.588;8.640;2022-12-05T11:10:21;17.27;;;10.53;;
68690;SDS011;55675;49.588;8.640;2022-12-05T11:12:50;17.40;;;10.73;;
68690;SDS011;55675;49.588;8.640;2022-12-05T11:17:45;18.27;;;10.80;;
68690;SDS011;55675;49.588;8.640;2022-12-05T11:22:44;15.23;;;9.77;;
68690;SDS011;55675;49.588;8.640;2022-12-05T11:27:52;16.03;;;10.27;;
68690;SDS011;55675;49.588;8.640;2022-12-05T11:30:19;15.73;;;10.00;;
68690;SDS011;55675;49.588;8.640;2022-12-05T11:32:48;18.47;;;10.13;;
68690;SDS011;55675;49.588;8.640;2022-12-05T11:35:26;17.87;;;11.17;;
68690;SDS011;55675;49.588;8.640;2022-12-05T11:40:26;17.53;;;10.97;;
68690;SDS011;55675;49.588;8.640;2022-12-05T11:45:58;16.03;;;10.67;;
68690;SDS011;55675;49.588;8.640;2022-12-05T11:51:36;19.23;;;10.70;;
68690;SDS011;55675;49.588;8.640;2022-12-05T11:54:18;15.43;;;10.20;;
68690;SDS011;55675;49.588;8.640;2022-12-05T11:59:55;16.60;;;9.97;;
68690;SDS011;55675;49.588;8.640;2022-12-05T12:27:34;19.10;;;11.73;;
68690;SDS011;55675;49.588;8.640;2022-12-05T12:30:06;85.97;;;41.07;;
68690;SDS011;55675;49.588;8.640;2022-12-05T12:33:03;24.53;;;13.93;;
68690;SDS011;55675;49.588;8.640;2022-12-05T12:35:52;17.47;;;11.17;;
68690;SDS011;55675;49.588;8.640;2022-12-05T12:44:52;18.73;;;11.07;;
68690;SDS011;55675;49.588;8.640;2022-12-05T12:47:12;17.57;;;10.53;;
68690;SDS011;55675;49.588;8.640;2022-12-05T12:52:42;18.33;;;10.63;;
68690;SDS011;55675;49.588;8.640;2022-12-05T12:55:34;16.70;;;10.10;;
68690;SDS011;55675;49.588;8.640;2022-12-05T12:58:32;16.97;;;10.17;;
68690;SDS011;55675;49.588;8.640;2022-12-05T13:09:35;18.70;;;10.73;;
68690;SDS011;55675;49.588;8.640;2022-12-05T13:12:07;16.43;;;10.17;;
68690;SDS011;55675;49.588;8.640;2022-12-05T13:14:38;15.13;;;9.83;;
68690;SDS011;55675;49.588;8.640;2022-12-05T13:17:11;15.70;;;10.90;;
68690;SDS011;55675;49.588;8.640;2022-12-05T13:19:44;16.20;;;10.77;;
68690;SDS011;55675;49.588;8.640;2022-12-05T13:22:12;18.07;;;10.50;;
68690;SDS011;55675;49.588;8.640;2022-12-05T13:24:40;15.67;;;10.77;;
68690;SDS011;55675;49.588;8.640;2022-12-05T13:27:07;14.27;;;9.90;;
68690;SDS011;55675;49.588;8.640;2022-12-05T13:29:40;17.73;;;10.90;;
68690;SDS011;55675;49.588;8.640;2022-12-05T13:35:10;16.00;;;10.63;;
68690;SDS011;55675;49.588;8.640;2022-12-05T13:37:44;16.00;;;10.90;;
68690;SDS011;55675;49.588;8.640;2022-12-05T13:40:31;18.90;;;11.17;;
68690;SDS011;55675;49.588;8.640;2022-12-05T13:43:18;17.07;;;10.87;;
68690;SDS011;55675;49.588;8.640;2022-12-05T13:46:10;17.43;;;11.33;;
68690;SDS011;55675;49.588;8.640;2022-12-05T13:48:43;18.00;;;11.87;;
68690;SDS011;55675;49.588;8.640;2022-12-05T13:51:19;16.57;;;11.03;;
68690;SDS011;55675;49.588;8.640;2022-12-05T14:10:14;16.67;;;10.13;;
68690;SDS011;55675;49.588;8.640;2022-12-05T14:12:45;15.20;;;10.33;;
68690;SDS011;55675;49.588;8.640;2022-12-05T14:15:23;15.93;;;10.27;;
68690;SDS011;55675;49.588;8.640;2022-12-05T14:17:59;17.33;;;10.40;;
68690;SDS011;55675;49.588;8.640;2022-12-05T14:20:41;16.07;;;10.57;;
68690;SDS011;55675;49.588;8.640;2022-12-05T14:34:20;14.27;;;9.70;;
68690;SDS011;55675;49.588;8.640;2022-12-05T14:37:02;13.60;;;9.40;;
68690;SDS011;55675;49.588;8.640;2022-12-05T14:39:38;15.73;;;10.40;;
68690;SDS011;55675;49.588;8.640;2022-12-05T14:45:00;14.50;;;9.50;;
68690;SDS011;55675;49.588;8.640;2022-12-05T14:50:41;12.73;;;9.37;;
68690;SDS011;55675;49.588;8.640;2022-12-05T14:55:49;15.30;;;9.83;;
68690;SDS011;55675;49.588;8.640;2022-12-05T14:58:19;15.43;;;9.57;;
68690;SDS011;55675;49.588;8.640;2022-12-05T15:00:54;15.03;;;9.37;;
68690;SDS011;55675;49.588;8.640;2022-12-05T15:03:24;15.13;;;9.37;;
68690;SDS011;55675;49.588;8.640;2022-12-05T15:06:02;12.00;;;8.83;;
68690;SDS011;55675;49.588;8.640;2022-12-05T15:08:31;13.23;;;9.10;;
68690;SDS011;55675;49.588;8.640;2022-12-05T15:11:03;14.00;;;9.03;;
68690;SDS011;55675;49.588;8.640;2022-12-05T15:13:29;11.67;;;8.53;;
68690;SDS011;55675;49.588;8.640;2022-12-05T15:16:06;12.80;;;8.50;;
68690;SDS011;55675;49.588;8.640;2022-12-05T15:18:41;12.37;;;8.23;;
68690;SDS011;55675;49.588;8.640;2022-12-05T15:24:00;10.97;;;7.97;;
68690;SDS011;55675;49.588;8.640;2022-12-05T15:26:39;11.60;;;7.90;;
68690;SDS011;55675;49.588;8.640;2022-12-05T15:29:15;13.03;;;8.10;;
68690;SDS011;55675;49.588;8.640;2022-12-05T15:32:03;11.73;;;7.43;;
68690;SDS011;55675;49.588;8.640;2022-12-05T15:42:26;6.10;;;4.50;;
68690;SDS011;55675;49.588;8.640;2022-12-05T15:47:39;3.93;;;3.00;;
68690;SDS011;55675;49.588;8.640;2022-12-05T15:50:11;3.40;;;3.10;;
68690;SDS011;55675;49.588;8.640;2022-12-05T15:52:50;4.37;;;3.97;;
68690;SDS011;55675;49.588;8.640;2022-12-05T15:55:26;2.80;;;2.60;;
68690;SDS011;55675;49.588;8.640;2022-12-05T15:58:00;3.53;;;2.80;;
68690;SDS011;55675;49.588;8.640;2022-12-05T16:00:46;2.57;;;2.33;;
68690;SDS011;55675;49.588;8.640;2022-12-05T16:03:19;2.53;;;2.33;;
68690;SDS011;55675;49.588;8.640;2022-12-05T16:05:54;2.47;;;2.20;;
68690;SDS011;55675;49.588;8.640;2022-12-05T16:08:29;4.43;;;2.23;;
68690;SDS011;55675;49.588;8.640;2022-12-05T16:11:08;2.83;;;2.50;;
68690;SDS011;55675;49.588;8.640;2022-12-05T16:13:34;3.07;;;2.50;;
68690;SDS011;55675;49.588;8.640;2022-12-05T16:16:05;2.77;;;2.43;;
68690;SDS011;55675;49.588;8.640;2022-12-05T16:18:32;2.63;;;2.40;;
68690;SDS011;55675;49.588;8.640;2022-12-05T16:20:57;4.07;;;2.40;;
68690;SDS011;55675;49.588;8.640;2022-12-05T16:23:27;2.77;;;2.30;;
68690;SDS011;55675;49.588;8.640;2022-12-05T16:28:37;2.50;;;2.30;;
68690;SDS011;55675;49.588;8.640;2022-12-05T16:31:03;2.60;;;2.40;;
68690;SDS011;55675;49.588;8.640;2022-12-05T16:33:30;3.20;;;2.43;;
68690;SDS011;55675;49.588;8.640;2022-12-05T16:36:09;2.30;;;2.10;;
68690;SDS011;55675;49.588;8.640;2022-12-05T16:38:36;2.60;;;2.40;;
68690;SDS011;55675;49.588;8.640;2022-12-05T16:41:03;3.77;;;2.90;;
68690;SDS011;55675;49.588;8.640;2022-12-05T16:45:58;3.70;;;2.60;;
68690;SDS011;55675;49.588;8.640;2022-12-05T16:48:33;3.50;;;2.60;;
68690;SDS011;55675;49.588;8.640;2022-12-05T16:53:41;2.67;;;2.47;;
68690;SDS011;55675;49.588;8.640;2022-12-05T16:56:11;3.13;;;2.53;;
68690;SDS011;55675;49.588;8.640;2022-12-05T16:58:44;2.43;;;2.23;;
68690;SDS011;55675;49.588;8.640;2022-12-05T17:01:13;2.50;;;2.30;;
68690;SDS011;55675;49.588;8.640;2022-12-05T17:03:41;2.30;;;2.10;;
68690;SDS011;55675;49.588;8.640;2022-12-05T17:06:07;2.70;;;2.20;;
68690;SDS011;55675;49.588;8.640;2022-12-05T17:08:32;2.80;;;2.20;;
68690;SDS011;55675;49.588;8.640;2022-12-05T17:10:58;2.90;;;2.20;;
68690;SDS011;55675;49.588;8.640;2022-12-05T17:13:25;2.57;;;2.20;;
68690;SDS011;55675;49.588;8.640;2022-12-05T17:15:51;2.90;;;2.70;;
68690;SDS011;55675;49.588;8.640;2022-12-05T17:18:18;2.90;;;2.60;;
68690;SDS011;55675;49.588;8.640;2022-12-05T17:20:46;2.63;;;2.37;;
68690;SDS011;55675;49.588;8.640;2022-12-05T17:23:14;3.07;;;2.50;;
68690;SDS011;55675;49.588;8.640;2022-12-05T17:25:42;3.80;;;3.27;;
68690;SDS011;55675;49.588;8.640;2022-12-05T17:28:16;3.23;;;2.93;;
68690;SDS011;55675;49.588;8.640;2022-12-05T17:30:42;3.83;;;3.40;;
68690;SDS011;55675;49.588;8.640;2022-12-05T17:33:11;3.53;;;3.23;;
68690;SDS011;55675;49.588;8.640;2022-12-05T17:35:38;3.87;;;3.30;;